Ifestos I — SV4139 — position and weather

sailwx.info

Track history (hours):
 
Tides and Currents Weather Stations Pressure Air Temp Water Temp Dewpoint Dewpoint Depression Visibility Wind Speed Wind Dir Waves Ship Positions

Ifestos I

Last reported at 2015-Mar-06 05:33 UTC. Time now 2015-Mar-06 06:03 UTC.
Position N 37°57' E 023°37'.

Length 30 m.

Type: Tug. MMSI: 237070500.

Date/timePositionNaut miles runAvg speedWind from/ knotsBaromVisibWave heightAir tempDewpointWater temp
2015-Mar-06 05:33N 37°57' E 023°37'0 0.0
2015-Mar-06 04:34N 37°57' E 023°37'0 0.0
2015-Mar-06 03:33N 37°57' E 023°37'0 0.0
2015-Mar-06 02:33N 37°57' E 023°37'0 0.0
2015-Mar-06 01:33N 37°57' E 023°37'0 0.0
2015-Mar-06 00:33N 37°57' E 023°37'0 0.0
2015-Mar-05 23:33N 37°57' E 023°37'0 0.0
2015-Mar-05 22:33N 37°57' E 023°37'0 0.0
2015-Mar-05 21:33N 37°57' E 023°37'0 0.0
2015-Mar-05 20:33N 37°57' E 023°37'0 0.0
2015-Mar-05 19:33N 37°57' E 023°37'0 0.0
2015-Mar-05 18:33N 37°57' E 023°37'0 0.0
2015-Mar-05 17:33N 37°57' E 023°37'0 0.0
2015-Mar-05 16:33N 37°57' E 023°37'0 0.0
2015-Mar-05 15:33N 37°57' E 023°37'0 0.0
2015-Mar-05 14:33N 37°57' E 023°37'0 0.0
2015-Mar-05 13:33N 37°57' E 023°37'1 1.1
2015-Mar-05 12:33N 37°57' E 023°35'1 1.1
2015-Mar-05 11:33N 37°57' E 023°37'0 0.0
2015-Mar-05 10:33N 37°57' E 023°37'2 2.4
2015-Mar-05 09:33N 37°57' E 023°34'0 0.0
2015-Mar-05 08:33N 37°57' E 023°34'2 1.9
2015-Mar-05 07:33N 37°57' E 023°36'0 0.2
2015-Mar-05 06:33N 37°57' E 023°36'0 0.0
2015-Mar-05 05:33N 37°57' E 023°36'0 0.1
2015-Mar-05 04:33N 37°57' E 023°36'1 0.8
2015-Mar-05 03:33N 37°57' E 023°37'0 0.0
2015-Mar-05 02:33N 37°57' E 023°37'0 0.0
2015-Mar-05 01:33N 37°57' E 023°37'0 0.0
2015-Mar-05 00:33N 37°57' E 023°37'0 0.0
2015-Mar-04 23:33N 37°57' E 023°37'0 0.0
2015-Mar-04 22:33N 37°57' E 023°37'0 0.0
2015-Mar-04 21:33N 37°57' E 023°37'0 0.0
2015-Mar-04 20:33N 37°57' E 023°37'0 0.0
2015-Mar-04 19:33N 37°57' E 023°37'0 0.0
2015-Mar-04 18:33N 37°57' E 023°37'0 0.0
2015-Mar-04 17:33N 37°57' E 023°37'0 0.0
2015-Mar-04 16:33N 37°57' E 023°37'0 0.0
2015-Mar-04 15:33N 37°57' E 023°37'4 3.7
2015-Mar-04 14:33N 38°00' E 023°33'2 2.1
2015-Mar-04 13:33N 38°01' E 023°36'0 0.0
2015-Mar-04 12:33N 38°01' E 023°36'0 0.0
2015-Mar-04 11:21N 38°01' E 023°36'0 0.0
2015-Mar-04 10:33N 38°01' E 023°36'0 0.0
2015-Mar-04 09:32N 38°01' E 023°36'0 0.0
2015-Mar-04 07:29N 38°01' E 023°36'0 0.0
2015-Mar-04 06:32N 38°01' E 023°36'0 0.0
2015-Mar-04 05:32N 38°01' E 023°36'0 0.0
2015-Mar-04 04:33N 38°01' E 023°36'0 0.0
2015-Mar-04 03:31N 38°01' E 023°36'0 0.0
2015-Mar-04 02:33N 38°01' E 023°36'0 0.0
2015-Mar-04 01:33N 38°01' E 023°36'0 0.0
2015-Mar-04 00:32N 38°01' E 023°36'0 0.0
2015-Mar-03 23:33N 38°01' E 023°36'0 0.0
2015-Mar-03 22:33N 38°01' E 023°36'0 0.0
2015-Mar-03 21:33N 38°01' E 023°36'0 0.0
2015-Mar-03 20:33N 38°01' E 023°36'0 0.0
2015-Mar-03 19:33N 38°01' E 023°36'0 0.0
2015-Mar-03 18:32N 38°01' E 023°36'0 0.0
2015-Mar-03 17:33N 38°01' E 023°36'0 0.0
2015-Mar-03 16:31N 38°01' E 023°36'0 0.0
2015-Mar-03 15:32N 38°01' E 023°36'0 0.0
2015-Mar-03 14:31N 38°01' E 023°36'0 0.0
2015-Mar-03 13:33N 38°01' E 023°36'0 0.0
2015-Mar-03 12:33N 38°01' E 023°36'1 0.5
2015-Mar-03 11:33N 38°02' E 023°35'0 0.3
2015-Mar-03 10:33N 38°02' E 023°35'4 4.3
2015-Mar-03 09:32N 38°02' E 023°30'1 1.5
2015-Mar-03 08:33N 38°01' E 023°31'2 1.6
2015-Mar-03 07:33N 38°02' E 023°33'2 2.0
2015-Mar-03 06:33N 38°01' E 023°35'4 4.3
2015-Mar-03 05:33N 37°57' E 023°33'3 2.5
2015-Mar-03 04:33N 37°57' E 023°37'0 0.0
2015-Mar-03 03:33N 37°57' E 023°37'0 0.0
2015-Mar-03 02:33N 37°57' E 023°37'0 0.0
2015-Mar-03 01:33N 37°57' E 023°37'0 0.0
2015-Mar-03 00:33N 37°57' E 023°37'0 0.0
2015-Mar-02 23:33N 37°57' E 023°37'0 0.0
2015-Mar-02 22:33N 37°57' E 023°37'0 0.0
2015-Mar-02 21:33N 37°57' E 023°37'0 0.0
2015-Mar-02 20:33N 37°57' E 023°37'0 0.0
2015-Mar-02 19:33N 37°57' E 023°37'0 0.0
2015-Mar-02 18:33N 37°57' E 023°37'0 0.0
2015-Mar-02 17:33N 37°57' E 023°37'0 0.0
2015-Mar-02 16:33N 37°57' E 023°37'0 0.0
2015-Mar-02 15:22N 37°57' E 023°37'0 0.0
2015-Mar-02 14:33N 37°57' E 023°37'3 3.1
2015-Mar-02 13:33N 37°58' E 023°33'3 3.5
2015-Mar-02 12:33N 38°02' E 023°32'1 0.6
2015-Mar-02 11:33N 38°02' E 023°32'1 0.5
2015-Mar-02 10:28N 38°02' E 023°32'0 0.0
2015-Mar-02 09:33N 38°02' E 023°32'0 0.0
2015-Mar-02 08:33N 38°02' E 023°32'0 0.0
2015-Mar-02 07:33N 38°02' E 023°32'2 2.4
2015-Mar-02 06:33N 38°02' E 023°36'2 2.2
2015-Mar-02 05:33N 38°00' E 023°33'4 3.8
2015-Mar-02 04:33N 37°57' E 023°37'0 0.0
2015-Mar-02 03:33N 37°57' E 023°37'0 0.0
2015-Mar-02 02:33N 37°57' E 023°37'0 0.0
2015-Mar-02 01:33N 37°57' E 023°37'0 0.0
2015-Mar-02 00:33N 37°57' E 023°37'0 0.0
2015-Mar-01 23:33N 37°57' E 023°37'0 0.0
2015-Mar-01 22:33N 37°57' E 023°37'0 0.0
2015-Mar-01 21:33N 37°57' E 023°37'0 0.0
2015-Mar-01 20:33N 37°57' E 023°37'0 0.0
2015-Mar-01 19:33N 37°57' E 023°37'0 0.0
2015-Mar-01 18:33N 37°57' E 023°37'0 0.0
2015-Mar-01 17:33N 37°57' E 023°37'0 0.0
2015-Mar-01 16:33N 37°57' E 023°37'0 0.0
2015-Mar-01 15:33N 37°57' E 023°37'0 0.0
2015-Mar-01 14:33N 37°57' E 023°37'0 0.0
2015-Mar-01 13:33N 37°57' E 023°37'0 0.0
2015-Mar-01 12:33N 37°57' E 023°37'0 0.0
2015-Mar-01 11:33N 37°57' E 023°37'0 0.0
2015-Mar-01 10:33N 37°57' E 023°37'0 0.0
2015-Mar-01 09:33N 37°57' E 023°37'0 0.0
2015-Mar-01 08:33N 37°57' E 023°37'0 0.0
2015-Mar-01 07:33N 37°57' E 023°37'0 0.0
2015-Mar-01 06:33N 37°57' E 023°37'0 0.0
2015-Mar-01 05:33N 37°57' E 023°37'0 0.0
2015-Mar-01 04:33N 37°57' E 023°37'0 0.0
2015-Mar-01 03:33N 37°57' E 023°37'0 0.0
2015-Mar-01 02:33N 37°57' E 023°37'1 0.7
2015-Mar-01 01:33N 37°57' E 023°36'1 0.7
2015-Mar-01 00:33N 37°57' E 023°37'0 0.0
2015-Feb-28 23:33N 37°57' E 023°37'0 0.0
2015-Feb-28 22:33N 37°57' E 023°37'0 0.0
2015-Feb-28 21:33N 37°57' E 023°37'1 0.6
2015-Feb-28 20:33N 37°57' E 023°36'0 0.5
2015-Feb-28 19:33N 37°57' E 023°36'1 0.9
2015-Feb-28 18:33N 37°57' E 023°37'0 0.0
2015-Feb-28 17:33N 37°57' E 023°37'0 0.0
2015-Feb-28 16:33N 37°57' E 023°37'0 0.0
2015-Feb-28 15:33N 37°57' E 023°37'0 0.0
2015-Feb-28 14:33N 37°57' E 023°37'0 0.0
2015-Feb-28 13:33N 37°57' E 023°37'0 0.0
2015-Feb-28 12:33N 37°57' E 023°37'0 0.0
2015-Feb-28 11:33N 37°57' E 023°37'0 0.0
2015-Feb-28 10:33N 37°57' E 023°37'1 0.8
2015-Feb-28 09:33N 37°57' E 023°36'1 0.8
2015-Feb-28 08:33N 37°57' E 023°37'0 0.0
2015-Feb-28 07:33N 37°57' E 023°37'0 0.0
2015-Feb-28 06:33N 37°57' E 023°37'0 0.0
2015-Feb-28 05:33N 37°57' E 023°37'0 0.0
2015-Feb-28 04:33N 37°57' E 023°37'0 0.0
2015-Feb-28 03:33N 37°57' E 023°37'0 0.0
2015-Feb-28 02:33N 37°57' E 023°37'0 0.0
2015-Feb-28 01:33N 37°57' E 023°37'0 0.0
2015-Feb-28 00:33N 37°57' E 023°37'0 0.0
2015-Feb-27 23:33N 37°57' E 023°37'0 0.0
2015-Feb-27 22:33N 37°57' E 023°37'0 0.0
2015-Feb-27 21:33N 37°57' E 023°37'0 0.0
2015-Feb-27 20:33N 37°57' E 023°37'0 0.0
2015-Feb-27 19:33N 37°57' E 023°37'0 0.0
2015-Feb-27 18:33N 37°57' E 023°37'0 0.0
2015-Feb-27 17:33N 37°57' E 023°37'0 0.0
2015-Feb-27 16:33N 37°57' E 023°37'0 0.0
2015-Feb-27 15:33N 37°57' E 023°37'0 0.0
2015-Feb-27 14:33N 37°57' E 023°37'0 0.0
2015-Feb-27 13:33N 37°57' E 023°37'0 0.0
2015-Feb-27 12:33N 37°57' E 023°37'0 0.0
2015-Feb-27 11:33N 37°57' E 023°37'0 0.0
2015-Feb-27 10:33N 37°57' E 023°37'0 0.0
2015-Feb-27 09:33N 37°57' E 023°37'0 0.0
2015-Feb-27 08:33N 37°57' E 023°37'0 0.0
2015-Feb-27 07:33N 37°57' E 023°37'0 0.0
2015-Feb-27 06:33N 37°57' E 023°37'0 0.0
2015-Feb-27 05:33N 37°57' E 023°37'0 0.0
2015-Feb-27 04:33N 37°57' E 023°37'0 0.0
2015-Feb-27 03:33N 37°57' E 023°37'0 0.0
2015-Feb-27 02:33N 37°57' E 023°37'0 0.0
2015-Feb-27 01:33N 37°57' E 023°37'0 0.0
2015-Feb-27 00:33N 37°57' E 023°37'0 0.0
2015-Feb-26 23:33N 37°57' E 023°37'0 0.0
2015-Feb-26 22:33N 37°57' E 023°37'0 0.0
2015-Feb-26 21:33N 37°57' E 023°37'0 0.0
2015-Feb-26 20:33N 37°57' E 023°37'0 0.0
2015-Feb-26 19:33N 37°57' E 023°37'0 0.0
2015-Feb-26 18:33N 37°57' E 023°37'0 0.0
2015-Feb-26 17:33N 37°57' E 023°37'4 4.2
2015-Feb-26 16:33N 38°02' E 023°36'0 0.2
2015-Feb-26 15:33N 38°01' E 023°36'0 0.0
2015-Feb-26 14:33N 38°01' E 023°35'0 0.0
2015-Feb-26 13:33N 38°01' E 023°35'0 0.0
2015-Feb-26 12:32N 38°01' E 023°36'0 0.0
2015-Feb-26 11:32N 38°01' E 023°35'0 0.0
2015-Feb-26 10:33N 38°01' E 023°35'0 0.0
2015-Feb-26 09:33N 38°01' E 023°36'0 0.0
2015-Feb-26 08:33N 38°01' E 023°36'0 0.0
2015-Feb-26 07:32N 38°01' E 023°36'0 0.0
2015-Feb-26 06:33N 38°01' E 023°36'0 0.0
2015-Feb-26 05:18N 38°01' E 023°36'0 0.0
2015-Feb-26 01:16N 38°01' E 023°35'0 0.0
2015-Feb-26 00:33N 38°01' E 023°35'0 0.0
2015-Feb-25 23:33N 38°01' E 023°35'0 0.0
2015-Feb-25 22:33N 38°01' E 023°35'0 0.0
2015-Feb-25 21:33N 38°01' E 023°35'0 0.0
2015-Feb-25 20:33N 38°01' E 023°35'0 0.0
2015-Feb-25 19:33N 38°01' E 023°35'0 0.0
2015-Feb-25 18:33N 38°01' E 023°35'0 0.0
2015-Feb-25 17:33N 38°01' E 023°35'0 0.0
2015-Feb-25 16:33N 38°01' E 023°35'1 1.0
2015-Feb-25 15:33N 38°02' E 023°34'1 0.6
2015-Feb-25 14:31N 38°01' E 023°34'3 2.7
2015-Feb-25 13:33N 38°02' E 023°31'3 2.5
2015-Feb-25 12:33N 38°02' E 023°34'1 1.4
2015-Feb-25 11:33N 38°01' E 023°36'0 0.0
2015-Feb-25 10:33N 38°01' E 023°36'0 0.0
2015-Feb-25 09:33N 38°01' E 023°36'0 0.0
2015-Feb-25 08:33N 38°01' E 023°36'0 0.0
2015-Feb-25 06:08N 38°01' E 023°36'0 0.0
2015-Feb-25 05:10N 38°01' E 023°36'0 0.0
2015-Feb-24 17:24N 38°01' E 023°36'0 0.0
2015-Feb-24 15:28N 38°01' E 023°36'0 0.0
2015-Feb-24 14:33N 38°01' E 023°36'0 0.0
2015-Feb-24 13:33N 38°01' E 023°36'0 0.0
2015-Feb-24 12:33N 38°01' E 023°36'0 0.0
2015-Feb-24 11:30N 38°01' E 023°36'0 0.0
2015-Feb-24 10:33N 38°01' E 023°36'0 0.0
2015-Feb-24 09:32N 38°01' E 023°36'0 0.0
2015-Feb-24 08:33N 38°01' E 023°36'0 0.2
2015-Feb-24 07:32N 38°02' E 023°36'4 3.7
2015-Feb-24 06:31N 37°59' E 023°33'2 2.4
2015-Feb-24 05:33N 37°57' E 023°35'  
Track history (hours):
 
Tides and Currents Weather Stations Pressure Air Temp Water Temp Dewpoint Dewpoint Depression Visibility Wind Speed Wind Dir Waves Ship Positions

Ifestos I

Last reported at 2015-Mar-06 05:33 UTC. Time now 2015-Mar-06 06:03 UTC.
Position N 37°57' E 023°37'.

Length 30 m.

Type: Tug. MMSI: 237070500.

Date/timePositionNaut miles runAvg speedWind from/ knotsBaromVisibWave heightAir tempDewpointWater temp
2015-Mar-06 05:33N 37°57' E 023°37'0 0.0
2015-Mar-06 04:34N 37°57' E 023°37'0 0.0
2015-Mar-06 03:33N 37°57' E 023°37'0 0.0
2015-Mar-06 02:33N 37°57' E 023°37'0 0.0
2015-Mar-06 01:33N 37°57' E 023°37'0 0.0
2015-Mar-06 00:33N 37°57' E 023°37'0 0.0
2015-Mar-05 23:33N 37°57' E 023°37'0 0.0
2015-Mar-05 22:33N 37°57' E 023°37'0 0.0
2015-Mar-05 21:33N 37°57' E 023°37'0 0.0
2015-Mar-05 20:33N 37°57' E 023°37'0 0.0
2015-Mar-05 19:33N 37°57' E 023°37'0 0.0
2015-Mar-05 18:33N 37°57' E 023°37'0 0.0
2015-Mar-05 17:33N 37°57' E 023°37'0 0.0
2015-Mar-05 16:33N 37°57' E 023°37'0 0.0
2015-Mar-05 15:33N 37°57' E 023°37'0 0.0
2015-Mar-05 14:33N 37°57' E 023°37'0 0.0
2015-Mar-05 13:33N 37°57' E 023°37'1 1.1
2015-Mar-05 12:33N 37°57' E 023°35'1 1.1
2015-Mar-05 11:33N 37°57' E 023°37'0 0.0
2015-Mar-05 10:33N 37°57' E 023°37'2 2.4
2015-Mar-05 09:33N 37°57' E 023°34'0 0.0
2015-Mar-05 08:33N 37°57' E 023°34'2 1.9
2015-Mar-05 07:33N 37°57' E 023°36'0 0.2
2015-Mar-05 06:33N 37°57' E 023°36'0 0.0
2015-Mar-05 05:33N 37°57' E 023°36'0 0.1
2015-Mar-05 04:33N 37°57' E 023°36'1 0.8
2015-Mar-05 03:33N 37°57' E 023°37'0 0.0
2015-Mar-05 02:33N 37°57' E 023°37'0 0.0
2015-Mar-05 01:33N 37°57' E 023°37'0 0.0
2015-Mar-05 00:33N 37°57' E 023°37'0 0.0
2015-Mar-04 23:33N 37°57' E 023°37'0 0.0
2015-Mar-04 22:33N 37°57' E 023°37'0 0.0
2015-Mar-04 21:33N 37°57' E 023°37'0 0.0
2015-Mar-04 20:33N 37°57' E 023°37'0 0.0
2015-Mar-04 19:33N 37°57' E 023°37'0 0.0
2015-Mar-04 18:33N 37°57' E 023°37'0 0.0
2015-Mar-04 17:33N 37°57' E 023°37'0 0.0
2015-Mar-04 16:33N 37°57' E 023°37'0 0.0
2015-Mar-04 15:33N 37°57' E 023°37'4 3.7
2015-Mar-04 14:33N 38°00' E 023°33'2 2.1
2015-Mar-04 13:33N 38°01' E 023°36'0 0.0
2015-Mar-04 12:33N 38°01' E 023°36'0 0.0
2015-Mar-04 11:21N 38°01' E 023°36'0 0.0
2015-Mar-04 10:33N 38°01' E 023°36'0 0.0
2015-Mar-04 09:32N 38°01' E 023°36'0 0.0
2015-Mar-04 07:29N 38°01' E 023°36'0 0.0
2015-Mar-04 06:32N 38°01' E 023°36'0 0.0
2015-Mar-04 05:32N 38°01' E 023°36'0 0.0
2015-Mar-04 04:33N 38°01' E 023°36'0 0.0
2015-Mar-04 03:31N 38°01' E 023°36'0 0.0
2015-Mar-04 02:33N 38°01' E 023°36'0 0.0
2015-Mar-04 01:33N 38°01' E 023°36'0 0.0
2015-Mar-04 00:32N 38°01' E 023°36'0 0.0
2015-Mar-03 23:33N 38°01' E 023°36'0 0.0
2015-Mar-03 22:33N 38°01' E 023°36'0 0.0
2015-Mar-03 21:33N 38°01' E 023°36'0 0.0
2015-Mar-03 20:33N 38°01' E 023°36'0 0.0
2015-Mar-03 19:33N 38°01' E 023°36'0 0.0
2015-Mar-03 18:32N 38°01' E 023°36'0 0.0
2015-Mar-03 17:33N 38°01' E 023°36'0 0.0
2015-Mar-03 16:31N 38°01' E 023°36'0 0.0
2015-Mar-03 15:32N 38°01' E 023°36'0 0.0
2015-Mar-03 14:31N 38°01' E 023°36'0 0.0
2015-Mar-03 13:33N 38°01' E 023°36'0 0.0
2015-Mar-03 12:33N 38°01' E 023°36'1 0.5
2015-Mar-03 11:33N 38°02' E 023°35'0 0.3
2015-Mar-03 10:33N 38°02' E 023°35'4 4.3
2015-Mar-03 09:32N 38°02' E 023°30'1 1.5
2015-Mar-03 08:33N 38°01' E 023°31'2 1.6
2015-Mar-03 07:33N 38°02' E 023°33'2 2.0
2015-Mar-03 06:33N 38°01' E 023°35'4 4.3
2015-Mar-03 05:33N 37°57' E 023°33'3 2.5
2015-Mar-03 04:33N 37°57' E 023°37'0 0.0
2015-Mar-03 03:33N 37°57' E 023°37'0 0.0
2015-Mar-03 02:33N 37°57' E 023°37'0 0.0
2015-Mar-03 01:33N 37°57' E 023°37'0 0.0
2015-Mar-03 00:33N 37°57' E 023°37'0 0.0
2015-Mar-02 23:33N 37°57' E 023°37'0 0.0
2015-Mar-02 22:33N 37°57' E 023°37'0 0.0
2015-Mar-02 21:33N 37°57' E 023°37'0 0.0
2015-Mar-02 20:33N 37°57' E 023°37'0 0.0
2015-Mar-02 19:33N 37°57' E 023°37'0 0.0
2015-Mar-02 18:33N 37°57' E 023°37'0 0.0
2015-Mar-02 17:33N 37°57' E 023°37'0 0.0
2015-Mar-02 16:33N 37°57' E 023°37'0 0.0
2015-Mar-02 15:22N 37°57' E 023°37'0 0.0
2015-Mar-02 14:33N 37°57' E 023°37'3 3.1
2015-Mar-02 13:33N 37°58' E 023°33'3 3.5
2015-Mar-02 12:33N 38°02' E 023°32'1 0.6
2015-Mar-02 11:33N 38°02' E 023°32'1 0.5
2015-Mar-02 10:28N 38°02' E 023°32'0 0.0
2015-Mar-02 09:33N 38°02' E 023°32'0 0.0
2015-Mar-02 08:33N 38°02' E 023°32'0 0.0
2015-Mar-02 07:33N 38°02' E 023°32'2 2.4
2015-Mar-02 06:33N 38°02' E 023°36'2 2.2
2015-Mar-02 05:33N 38°00' E 023°33'4 3.8
2015-Mar-02 04:33N 37°57' E 023°37'0 0.0
2015-Mar-02 03:33N 37°57' E 023°37'0 0.0
2015-Mar-02 02:33N 37°57' E 023°37'0 0.0
2015-Mar-02 01:33N 37°57' E 023°37'0 0.0
2015-Mar-02 00:33N 37°57' E 023°37'0 0.0
2015-Mar-01 23:33N 37°57' E 023°37'0 0.0
2015-Mar-01 22:33N 37°57' E 023°37'0 0.0
2015-Mar-01 21:33N 37°57' E 023°37'0 0.0
2015-Mar-01 20:33N 37°57' E 023°37'0 0.0
2015-Mar-01 19:33N 37°57' E 023°37'0 0.0
2015-Mar-01 18:33N 37°57' E 023°37'0 0.0
2015-Mar-01 17:33N 37°57' E 023°37'0 0.0
2015-Mar-01 16:33N 37°57' E 023°37'0 0.0
2015-Mar-01 15:33N 37°57' E 023°37'0 0.0
2015-Mar-01 14:33N 37°57' E 023°37'0 0.0
2015-Mar-01 13:33N 37°57' E 023°37'0 0.0
2015-Mar-01 12:33N 37°57' E 023°37'0 0.0
2015-Mar-01 11:33N 37°57' E 023°37'0 0.0
2015-Mar-01 10:33N 37°57' E 023°37'0 0.0
2015-Mar-01 09:33N 37°57' E 023°37'0 0.0
2015-Mar-01 08:33N 37°57' E 023°37'0 0.0
2015-Mar-01 07:33N 37°57' E 023°37'0 0.0
2015-Mar-01 06:33N 37°57' E 023°37'0 0.0
2015-Mar-01 05:33N 37°57' E 023°37'0 0.0
2015-Mar-01 04:33N 37°57' E 023°37'0 0.0
2015-Mar-01 03:33N 37°57' E 023°37'0 0.0
2015-Mar-01 02:33N 37°57' E 023°37'1 0.7
2015-Mar-01 01:33N 37°57' E 023°36'1 0.7
2015-Mar-01 00:33N 37°57' E 023°37'0 0.0
2015-Feb-28 23:33N 37°57' E 023°37'0 0.0
2015-Feb-28 22:33N 37°57' E 023°37'0 0.0
2015-Feb-28 21:33N 37°57' E 023°37'1 0.6
2015-Feb-28 20:33N 37°57' E 023°36'0 0.5
2015-Feb-28 19:33N 37°57' E 023°36'1 0.9
2015-Feb-28 18:33N 37°57' E 023°37'0 0.0
2015-Feb-28 17:33N 37°57' E 023°37'0 0.0
2015-Feb-28 16:33N 37°57' E 023°37'0 0.0
2015-Feb-28 15:33N 37°57' E 023°37'0 0.0
2015-Feb-28 14:33N 37°57' E 023°37'0 0.0
2015-Feb-28 13:33N 37°57' E 023°37'0 0.0
2015-Feb-28 12:33N 37°57' E 023°37'0 0.0
2015-Feb-28 11:33N 37°57' E 023°37'0 0.0
2015-Feb-28 10:33N 37°57' E 023°37'1 0.8
2015-Feb-28 09:33N 37°57' E 023°36'1 0.8
2015-Feb-28 08:33N 37°57' E 023°37'0 0.0
2015-Feb-28 07:33N 37°57' E 023°37'0 0.0
2015-Feb-28 06:33N 37°57' E 023°37'0 0.0
2015-Feb-28 05:33N 37°57' E 023°37'0 0.0
2015-Feb-28 04:33N 37°57' E 023°37'0 0.0
2015-Feb-28 03:33N 37°57' E 023°37'0 0.0
2015-Feb-28 02:33N 37°57' E 023°37'0 0.0
2015-Feb-28 01:33N 37°57' E 023°37'0 0.0
2015-Feb-28 00:33N 37°57' E 023°37'0 0.0
2015-Feb-27 23:33N 37°57' E 023°37'0 0.0
2015-Feb-27 22:33N 37°57' E 023°37'0 0.0
2015-Feb-27 21:33N 37°57' E 023°37'0 0.0
2015-Feb-27 20:33N 37°57' E 023°37'0 0.0
2015-Feb-27 19:33N 37°57' E 023°37'0 0.0
2015-Feb-27 18:33N 37°57' E 023°37'0 0.0
2015-Feb-27 17:33N 37°57' E 023°37'0 0.0
2015-Feb-27 16:33N 37°57' E 023°37'0 0.0
2015-Feb-27 15:33N 37°57' E 023°37'0 0.0
2015-Feb-27 14:33N 37°57' E 023°37'0 0.0
2015-Feb-27 13:33N 37°57' E 023°37'0 0.0
2015-Feb-27 12:33N 37°57' E 023°37'0 0.0
2015-Feb-27 11:33N 37°57' E 023°37'0 0.0
2015-Feb-27 10:33N 37°57' E 023°37'0 0.0
2015-Feb-27 09:33N 37°57' E 023°37'0 0.0
2015-Feb-27 08:33N 37°57' E 023°37'0 0.0
2015-Feb-27 07:33N 37°57' E 023°37'0 0.0
2015-Feb-27 06:33N 37°57' E 023°37'0 0.0
2015-Feb-27 05:33N 37°57' E 023°37'0 0.0
2015-Feb-27 04:33N 37°57' E 023°37'0 0.0
2015-Feb-27 03:33N 37°57' E 023°37'0 0.0
2015-Feb-27 02:33N 37°57' E 023°37'0 0.0
2015-Feb-27 01:33N 37°57' E 023°37'0 0.0
2015-Feb-27 00:33N 37°57' E 023°37'0 0.0
2015-Feb-26 23:33N 37°57' E 023°37'0 0.0
2015-Feb-26 22:33N 37°57' E 023°37'0 0.0
2015-Feb-26 21:33N 37°57' E 023°37'0 0.0
2015-Feb-26 20:33N 37°57' E 023°37'0 0.0
2015-Feb-26 19:33N 37°57' E 023°37'0 0.0
2015-Feb-26 18:33N 37°57' E 023°37'0 0.0
2015-Feb-26 17:33N 37°57' E 023°37'4 4.2
2015-Feb-26 16:33N 38°02' E 023°36'0 0.2
2015-Feb-26 15:33N 38°01' E 023°36'0 0.0
2015-Feb-26 14:33N 38°01' E 023°35'0 0.0
2015-Feb-26 13:33N 38°01' E 023°35'0 0.0
2015-Feb-26 12:32N 38°01' E 023°36'0 0.0
2015-Feb-26 11:32N 38°01' E 023°35'0 0.0
2015-Feb-26 10:33N 38°01' E 023°35'0 0.0
2015-Feb-26 09:33N 38°01' E 023°36'0 0.0
2015-Feb-26 08:33N 38°01' E 023°36'0 0.0
2015-Feb-26 07:32N 38°01' E 023°36'0 0.0
2015-Feb-26 06:33N 38°01' E 023°36'0 0.0
2015-Feb-26 05:18N 38°01' E 023°36'0 0.0
2015-Feb-26 01:16N 38°01' E 023°35'0 0.0
2015-Feb-26 00:33N 38°01' E 023°35'0 0.0
2015-Feb-25 23:33N 38°01' E 023°35'0 0.0
2015-Feb-25 22:33N 38°01' E 023°35'0 0.0
2015-Feb-25 21:33N 38°01' E 023°35'0 0.0
2015-Feb-25 20:33N 38°01' E 023°35'0 0.0
2015-Feb-25 19:33N 38°01' E 023°35'0 0.0
2015-Feb-25 18:33N 38°01' E 023°35'0 0.0
2015-Feb-25 17:33N 38°01' E 023°35'0 0.0
2015-Feb-25 16:33N 38°01' E 023°35'1 1.0
2015-Feb-25 15:33N 38°02' E 023°34'1 0.6
2015-Feb-25 14:31N 38°01' E 023°34'3 2.7
2015-Feb-25 13:33N 38°02' E 023°31'3 2.5
2015-Feb-25 12:33N 38°02' E 023°34'1 1.4
2015-Feb-25 11:33N 38°01' E 023°36'0 0.0
2015-Feb-25 10:33N 38°01' E 023°36'0 0.0
2015-Feb-25 09:33N 38°01' E 023°36'0 0.0
2015-Feb-25 08:33N 38°01' E 023°36'0 0.0
2015-Feb-25 06:08N 38°01' E 023°36'0 0.0
2015-Feb-25 05:10N 38°01' E 023°36'0 0.0
2015-Feb-24 17:24N 38°01' E 023°36'0 0.0
2015-Feb-24 15:28N 38°01' E 023°36'0 0.0
2015-Feb-24 14:33N 38°01' E 023°36'0 0.0
2015-Feb-24 13:33N 38°01' E 023°36'0 0.0
2015-Feb-24 12:33N 38°01' E 023°36'0 0.0
2015-Feb-24 11:30N 38°01' E 023°36'0 0.0
2015-Feb-24 10:33N 38°01' E 023°36'0 0.0
2015-Feb-24 09:32N 38°01' E 023°36'0 0.0
2015-Feb-24 08:33N 38°01' E 023°36'0 0.2
2015-Feb-24 07:32N 38°02' E 023°36'4 3.7
2015-Feb-24 06:31N 37°59' E 023°33'2 2.4
2015-Feb-24 05:33N 37°57' E 023°35'  

Dump ship's entire track history